METAR AND TAF INFORMATION
METAR FOR GEML
ADDS - METARS form results

(1218 UTC 08 August 2020)
Data provider http://aviationweather.gov/metar/data/
 
METAR text: GEML 081200Z 03005KT 340V080 9999 FEW015 28/22 Q1018
Conditions at: GEML (MELILLA , ES) observed 1200 UTC 08 August 2020
Temperature: 28.0°C (82°F)
Dewpoint: 22.0°C (72°F) [RH = 70%]
Pressure (altimeter): 30.06 inches Hg (1018.0 mb)
Winds: from the NNE (30 degrees) at 6 MPH (5 knots; 2.6 m/s)
Visibility: 6 or more miles (10+ km)
Ceiling: at least 12,000 feet AGL
Clouds: few clouds at 1500 feet AGL
Weather: no significant weather observed at this time

METAR text: GEML 081130Z 08005KT 010V130 9999 FEW012 28/22 Q1018
Conditions at: GEML (MELILLA , ES) observed 1130 UTC 08 August 2020
Temperature: 28.0°C (82°F)
Dewpoint: 22.0°C (72°F) [RH = 70%]
Pressure (altimeter): 30.06 inches Hg (1018.0 mb)
Winds: from the E (80 degrees) at 6 MPH (5 knots; 2.6 m/s)
Visibility: 6 or more miles (10+ km)
Ceiling: at least 12,000 feet AGL
Clouds: few clouds at 1200 feet AGL
Weather: no significant weather observed at this time

Forecast for: GEML (MELILLA , ES)
Text: TAF GEML 080800Z 0809/0909 09006KT 9999 FEW010 SCT020 TX30/0813Z TN24/0905Z
Forecast period: 0900 UTC 08 August 2020 to 0900 UTC 09 August 2020
Forecast type: FROM: standard forecast or significant change
Winds: from the E (90 degrees) at 7 MPH (6 knots; 3.1 m/s)
Visibility: 6 or more miles (10+ km)
Ceiling: at least 12,000 feet AGL
Clouds: few clouds at 1000 feet AGL
scattered clouds at 2000 feet AGL
Weather: no significant weather forecast for this period
Text: TEMPO 0821/0908 BKN010
Forecast period: 2100 UTC 08 August 2020 to 0800 UTC 09 August 2020
Forecast type: TEMPORARY: The following changes expected for less than half the time period
Visibility: missing
Ceiling: 1000 feet AGL
Clouds: broken clouds at 1000 feet AGL
Weather: no significant weather forecast for this period

 AIRPORT MAP

 RUNWAY INFORMATION
Runway 15 Runway length 4685 ft Runway width 148 ft
Runway elevation 156 ft Runway displaced threshold 755 ft Runway heading 146
Runway 33 Runway length 4685 ft Runway width 148 ft
Runway elevation 133 ft Runway displaced threshold 0 ft Runway heading 326

 AIRPORT FREQUENCIES
Type GND Name GND Frequency 121.7 MHZ
Type TWR Name TWR Frequency 118.5 MHZ

 AIRPORT NEAR NAVIGATION AIDS
Type VOR-DME Name Melilla Frequency 114250 KHZ
Type DME Name Melilla Frequency 117400 KHZ



Powered by Virtual Airlines Manager [v2.6.2]